Skip Navigation Links Skip Navigation Links

Current Weather

Alert, Nunavut

For information only: do not use for flight planning or navigation.
Latest weather
Observation time Thursday, June 21, 2018 5:00 PM EDT
Local time Thursday, June 21, 2018 5:54 PM EDT
Flight conditions Visual Meteorological Conditions
Winds
Wind direction North-Northwest (340°)
Wind speed 3 mph
Visibility 10 mi.
Sky condition
Ceiling 7,500 ft. broken clouds
Cloud layer scattered clouds 3,000 ft.
Cloud layer broken clouds 7,500 ft.
Temperature 32°F
Dewpoint 30°F
Altimeter 29.58 in.Hg
Derived measurements
Relative humidity 93%
Wind chill 29°F
Density altitude -1350 ft.
Sea-level pressure 29.59 in.Hg
METAR CYLT 212100Z 34003KT 10SM SCT030 BKN075 M00/M01 A2958 RMK SC4AC1 SLP021

Settings

Location code

InnerDrive.Weather 4.0.6615.0 Release CLR 4.0.30319.42000
Copyright ©2018 Inner Drive Technology. All rights reserved. Portions Copyright ©1986-2018 David Braverman.

Find weather

Site navigation


Skip Navigation Links

Place info

Page info

PayPal - The safer, easier way to pay online!

Return home.

Copyright ©2018 Inner Drive Technology. Purveyors of fine, hand-crafted computer software. Page printed 2018-06-21T21:54:00 UTC.